sensor_id;sensor_type;location;lat;lon;timestamp;temperature;humidity
19945;DHT22;10134;50.952;6.930;2023-04-06T00:01:31;6.30;81.90
19945;DHT22;10134;50.952;6.930;2023-04-06T00:03:59;6.30;83.70
19945;DHT22;10134;50.952;6.930;2023-04-06T00:06:26;6.30;82.70
19945;DHT22;10134;50.952;6.930;2023-04-06T00:08:55;6.30;82.90
19945;DHT22;10134;50.952;6.930;2023-04-06T00:11:23;6.20;84.00
19945;DHT22;10134;50.952;6.930;2023-04-06T00:13:50;6.30;84.10
19945;DHT22;10134;50.952;6.930;2023-04-06T00:16:20;6.20;85.70
19945;DHT22;10134;50.952;6.930;2023-04-06T00:18:50;6.20;85.80
19945;DHT22;10134;50.952;6.930;2023-04-06T00:21:17;6.20;86.90
19945;DHT22;10134;50.952;6.930;2023-04-06T00:23:45;6.10;88.40
19945;DHT22;10134;50.952;6.930;2023-04-06T00:26:12;6.10;87.80
19945;DHT22;10134;50.952;6.930;2023-04-06T00:28:45;6.10;87.30
19945;DHT22;10134;50.952;6.930;2023-04-06T00:31:13;6.10;87.40
19945;DHT22;10134;50.952;6.930;2023-04-06T00:33:40;6.10;87.80
19945;DHT22;10134;50.952;6.930;2023-04-06T00:36:08;6.10;86.90
19945;DHT22;10134;50.952;6.930;2023-04-06T00:38:35;6.10;86.80
19945;DHT22;10134;50.952;6.930;2023-04-06T00:41:03;6.10;87.10
19945;DHT22;10134;50.952;6.930;2023-04-06T00:43:31;6.00;87.50
19945;DHT22;10134;50.952;6.930;2023-04-06T00:45:59;6.00;87.20
19945;DHT22;10134;50.952;6.930;2023-04-06T00:48:26;5.90;87.90
19945;DHT22;10134;50.952;6.930;2023-04-06T00:50:54;5.90;87.60
19945;DHT22;10134;50.952;6.930;2023-04-06T00:53:21;5.90;87.90
19945;DHT22;10134;50.952;6.930;2023-04-06T00:55:50;5.80;89.20
19945;DHT22;10134;50.952;6.930;2023-04-06T00:58:18;5.80;90.30
19945;DHT22;10134;50.952;6.930;2023-04-06T01:00:51;5.80;90.00
19945;DHT22;10134;50.952;6.930;2023-04-06T01:03:22;5.80;90.00
19945;DHT22;10134;50.952;6.930;2023-04-06T01:05:51;5.80;90.80
19945;DHT22;10134;50.952;6.930;2023-04-06T01:08:25;5.80;91.30
19945;DHT22;10134;50.952;6.930;2023-04-06T01:11:00;5.80;90.90
19945;DHT22;10134;50.952;6.930;2023-04-06T01:13:29;5.70;91.40
19945;DHT22;10134;50.952;6.930;2023-04-06T01:16:00;5.70;91.30
19945;DHT22;10134;50.952;6.930;2023-04-06T01:19:06;5.70;91.40
19945;DHT22;10134;50.952;6.930;2023-04-06T01:21:36;5.70;91.40
19945;DHT22;10134;50.952;6.930;2023-04-06T01:24:26;5.70;91.60
19945;DHT22;10134;50.952;6.930;2023-04-06T01:27:10;5.70;91.60
19945;DHT22;10134;50.952;6.930;2023-04-06T01:30:00;5.70;91.80
19945;DHT22;10134;50.952;6.930;2023-04-06T01:32:54;5.60;91.90
19945;DHT22;10134;50.952;6.930;2023-04-06T01:35:37;5.60;92.20
19945;DHT22;10134;50.952;6.930;2023-04-06T01:38:12;5.60;92.10
19945;DHT22;10134;50.952;6.930;2023-04-06T01:40:40;5.60;92.40
19945;DHT22;10134;50.952;6.930;2023-04-06T01:43:08;5.50;92.50
19945;DHT22;10134;50.952;6.930;2023-04-06T01:45:46;5.60;92.40
19945;DHT22;10134;50.952;6.930;2023-04-06T01:48:18;5.50;92.90
19945;DHT22;10134;50.952;6.930;2023-04-06T01:50:46;5.50;92.80
19945;DHT22;10134;50.952;6.930;2023-04-06T01:53:19;5.50;93.10
19945;DHT22;10134;50.952;6.930;2023-04-06T01:55:47;5.40;93.40
19945;DHT22;10134;50.952;6.930;2023-04-06T01:58:20;5.40;93.60
19945;DHT22;10134;50.952;6.930;2023-04-06T02:00:48;5.40;93.50
19945;DHT22;10134;50.952;6.930;2023-04-06T02:03:16;5.40;93.80
19945;DHT22;10134;50.952;6.930;2023-04-06T02:05:45;5.40;93.80
19945;DHT22;10134;50.952;6.930;2023-04-06T02:08:22;5.40;93.60
19945;DHT22;10134;50.952;6.930;2023-04-06T02:10:50;5.40;93.70
19945;DHT22;10134;50.952;6.930;2023-04-06T02:13:27;5.30;93.70
19945;DHT22;10134;50.952;6.930;2023-04-06T02:15:55;5.30;93.70
19945;DHT22;10134;50.952;6.930;2023-04-06T02:18:22;5.30;94.20
19945;DHT22;10134;50.952;6.930;2023-04-06T02:20:50;5.30;94.10
19945;DHT22;10134;50.952;6.930;2023-04-06T02:23:18;5.30;93.80
19945;DHT22;10134;50.952;6.930;2023-04-06T02:25:45;5.30;93.80
19945;DHT22;10134;50.952;6.930;2023-04-06T02:28:13;5.30;93.70
19945;DHT22;10134;50.952;6.930;2023-04-06T02:30:40;5.30;93.50
19945;DHT22;10134;50.952;6.930;2023-04-06T02:33:08;5.30;93.30
19945;DHT22;10134;50.952;6.930;2023-04-06T02:35:44;5.30;93.20
19945;DHT22;10134;50.952;6.930;2023-04-06T02:38:12;5.30;93.10
19945;DHT22;10134;50.952;6.930;2023-04-06T02:40:40;5.30;93.20
19945;DHT22;10134;50.952;6.930;2023-04-06T02:43:36;5.20;92.90
19945;DHT22;10134;50.952;6.930;2023-04-06T02:46:16;5.20;93.40
19945;DHT22;10134;50.952;6.930;2023-04-06T02:48:43;5.20;93.50
19945;DHT22;10134;50.952;6.930;2023-04-06T02:51:10;5.10;93.60
19945;DHT22;10134;50.952;6.930;2023-04-06T02:53:41;5.10;94.00
19945;DHT22;10134;50.952;6.930;2023-04-06T02:56:09;5.10;93.80
19945;DHT22;10134;50.952;6.930;2023-04-06T02:58:49;5.10;94.10
19945;DHT22;10134;50.952;6.930;2023-04-06T03:01:18;5.10;94.20
19945;DHT22;10134;50.952;6.930;2023-04-06T03:03:51;5.10;94.20
19945;DHT22;10134;50.952;6.930;2023-04-06T03:06:23;5.10;94.20
19945;DHT22;10134;50.952;6.930;2023-04-06T03:08:55;5.10;94.40
19945;DHT22;10134;50.952;6.930;2023-04-06T03:11:23;5.00;94.80
19945;DHT22;10134;50.952;6.930;2023-04-06T03:13:52;5.00;95.00
19945;DHT22;10134;50.952;6.930;2023-04-06T03:16:20;5.00;94.70
19945;DHT22;10134;50.952;6.930;2023-04-06T03:18:48;4.90;95.50
19945;DHT22;10134;50.952;6.930;2023-04-06T03:21:15;4.90;95.60
19945;DHT22;10134;50.952;6.930;2023-04-06T03:23:48;4.90;95.90
19945;DHT22;10134;50.952;6.930;2023-04-06T03:26:18;4.90;95.90
19945;DHT22;10134;50.952;6.930;2023-04-06T03:28:45;4.80;95.90
19945;DHT22;10134;50.952;6.930;2023-04-06T03:31:13;4.80;95.90
19945;DHT22;10134;50.952;6.930;2023-04-06T03:34:19;4.80;96.00
19945;DHT22;10134;50.952;6.930;2023-04-06T03:36:47;4.80;96.40
19945;DHT22;10134;50.952;6.930;2023-04-06T03:39:26;4.70;96.60
19945;DHT22;10134;50.952;6.930;2023-04-06T03:41:53;4.70;96.80
19945;DHT22;10134;50.952;6.930;2023-04-06T03:44:35;4.70;96.80
19945;DHT22;10134;50.952;6.930;2023-04-06T03:47:03;4.70;97.10
19945;DHT22;10134;50.952;6.930;2023-04-06T03:49:31;4.70;96.80
19945;DHT22;10134;50.952;6.930;2023-04-06T03:52:00;4.70;97.30
19945;DHT22;10134;50.952;6.930;2023-04-06T03:54:28;4.70;97.30
19945;DHT22;10134;50.952;6.930;2023-04-06T03:56:56;4.70;97.10
19945;DHT22;10134;50.952;6.930;2023-04-06T03:59:26;4.70;97.20
19945;DHT22;10134;50.952;6.930;2023-04-06T04:01:53;4.70;96.90
19945;DHT22;10134;50.952;6.930;2023-04-06T04:04:21;4.70;97.10
19945;DHT22;10134;50.952;6.930;2023-04-06T04:06:48;4.70;97.40
19945;DHT22;10134;50.952;6.930;2023-04-06T04:09:16;4.70;97.70
19945;DHT22;10134;50.952;6.930;2023-04-06T04:11:43;4.60;97.60
19945;DHT22;10134;50.952;6.930;2023-04-06T04:14:10;4.70;97.60
19945;DHT22;10134;50.952;6.930;2023-04-06T04:16:38;4.70;97.60
19945;DHT22;10134;50.952;6.930;2023-04-06T04:19:06;4.70;97.60
19945;DHT22;10134;50.952;6.930;2023-04-06T04:21:41;4.60;97.50
19945;DHT22;10134;50.952;6.930;2023-04-06T04:24:09;4.60;98.00
19945;DHT22;10134;50.952;6.930;2023-04-06T04:26:37;4.60;98.00
19945;DHT22;10134;50.952;6.930;2023-04-06T04:29:06;4.50;98.00
19945;DHT22;10134;50.952;6.930;2023-04-06T04:31:36;4.50;98.00
19945;DHT22;10134;50.952;6.930;2023-04-06T04:34:07;4.50;98.00
19945;DHT22;10134;50.952;6.930;2023-04-06T04:36:35;4.50;97.80
19945;DHT22;10134;50.952;6.930;2023-04-06T04:39:06;4.50;97.60
19945;DHT22;10134;50.952;6.930;2023-04-06T04:41:39;4.50;97.70
19945;DHT22;10134;50.952;6.930;2023-04-06T04:44:09;4.50;97.60
19945;DHT22;10134;50.952;6.930;2023-04-06T04:46:36;4.50;97.30
19945;DHT22;10134;50.952;6.930;2023-04-06T04:49:04;4.50;97.10
19945;DHT22;10134;50.952;6.930;2023-04-06T04:51:32;4.50;97.30
19945;DHT22;10134;50.952;6.930;2023-04-06T04:54:10;4.40;97.50
19945;DHT22;10134;50.952;6.930;2023-04-06T04:56:39;4.50;97.20
19945;DHT22;10134;50.952;6.930;2023-04-06T04:59:23;4.50;96.90
19945;DHT22;10134;50.952;6.930;2023-04-06T05:02:02;4.40;96.90
19945;DHT22;10134;50.952;6.930;2023-04-06T05:04:39;4.40;96.90
19945;DHT22;10134;50.952;6.930;2023-04-06T05:07:10;4.40;96.80
19945;DHT22;10134;50.952;6.930;2023-04-06T05:09:40;4.50;96.80
19945;DHT22;10134;50.952;6.930;2023-04-06T05:12:08;4.50;96.80
19945;DHT22;10134;50.952;6.930;2023-04-06T05:14:44;4.50;96.80
19945;DHT22;10134;50.952;6.930;2023-04-06T05:17:16;4.50;96.70
19945;DHT22;10134;50.952;6.930;2023-04-06T05:19:43;4.50;96.50
19945;DHT22;10134;50.952;6.930;2023-04-06T05:22:13;4.50;96.30
19945;DHT22;10134;50.952;6.930;2023-04-06T05:24:45;4.50;96.30
19945;DHT22;10134;50.952;6.930;2023-04-06T05:27:13;4.50;96.10
19945;DHT22;10134;50.952;6.930;2023-04-06T05:29:40;4.50;96.00
19945;DHT22;10134;50.952;6.930;2023-04-06T05:32:08;4.60;96.00
19945;DHT22;10134;50.952;6.930;2023-04-06T05:34:36;4.50;95.90
19945;DHT22;10134;50.952;6.930;2023-04-06T05:37:04;4.50;95.90
19945;DHT22;10134;50.952;6.930;2023-04-06T05:39:32;4.60;96.00
19945;DHT22;10134;50.952;6.930;2023-04-06T05:42:03;4.60;96.00
19945;DHT22;10134;50.952;6.930;2023-04-06T05:44:44;4.60;95.90
19945;DHT22;10134;50.952;6.930;2023-04-06T05:47:15;4.60;95.60
19945;DHT22;10134;50.952;6.930;2023-04-06T05:49:44;4.60;95.80
19945;DHT22;10134;50.952;6.930;2023-04-06T05:52:19;4.70;95.80
19945;DHT22;10134;50.952;6.930;2023-04-06T05:54:48;4.70;96.30
19945;DHT22;10134;50.952;6.930;2023-04-06T05:57:16;4.70;95.90
19945;DHT22;10134;50.952;6.930;2023-04-06T05:59:47;4.80;95.60
19945;DHT22;10134;50.952;6.930;2023-04-06T06:02:15;4.80;95.60
19945;DHT22;10134;50.952;6.930;2023-04-06T06:04:46;4.80;95.40
19945;DHT22;10134;50.952;6.930;2023-04-06T06:07:15;4.80;95.60
19945;DHT22;10134;50.952;6.930;2023-04-06T06:09:47;4.80;95.40
19945;DHT22;10134;50.952;6.930;2023-04-06T06:12:24;4.80;95.40
19945;DHT22;10134;50.952;6.930;2023-04-06T06:14:51;4.90;95.40
19945;DHT22;10134;50.952;6.930;2023-04-06T06:17:19;4.90;95.40
19945;DHT22;10134;50.952;6.930;2023-04-06T06:19:48;4.90;95.40
19945;DHT22;10134;50.952;6.930;2023-04-06T06:22:16;5.00;95.50
19945;DHT22;10134;50.952;6.930;2023-04-06T06:24:46;5.00;95.40
19945;DHT22;10134;50.952;6.930;2023-04-06T06:27:14;5.00;95.60
19945;DHT22;10134;50.952;6.930;2023-04-06T06:29:42;5.10;95.60
19945;DHT22;10134;50.952;6.930;2023-04-06T06:32:10;5.10;95.60
19945;DHT22;10134;50.952;6.930;2023-04-06T06:34:39;5.20;96.00
19945;DHT22;10134;50.952;6.930;2023-04-06T06:37:08;5.30;95.70
19945;DHT22;10134;50.952;6.930;2023-04-06T06:39:37;5.30;95.50
19945;DHT22;10134;50.952;6.930;2023-04-06T06:42:05;5.30;95.40
19945;DHT22;10134;50.952;6.930;2023-04-06T06:44:46;5.40;95.30
19945;DHT22;10134;50.952;6.930;2023-04-06T06:47:14;5.50;95.40
19945;DHT22;10134;50.952;6.930;2023-04-06T06:49:43;5.50;95.20
19945;DHT22;10134;50.952;6.930;2023-04-06T06:52:11;5.50;95.20
19945;DHT22;10134;50.952;6.930;2023-04-06T06:54:38;5.60;95.20
19945;DHT22;10134;50.952;6.930;2023-04-06T06:57:06;5.60;95.10
19945;DHT22;10134;50.952;6.930;2023-04-06T06:59:34;5.70;95.10
19945;DHT22;10134;50.952;6.930;2023-04-06T07:02:01;5.80;94.90
19945;DHT22;10134;50.952;6.930;2023-04-06T07:04:29;5.80;94.70
19945;DHT22;10134;50.952;6.930;2023-04-06T07:06:56;5.90;94.80
19945;DHT22;10134;50.952;6.930;2023-04-06T07:09:23;5.90;94.80
19945;DHT22;10134;50.952;6.930;2023-04-06T07:11:51;6.00;94.80
19945;DHT22;10134;50.952;6.930;2023-04-06T07:14:18;6.10;94.70
19945;DHT22;10134;50.952;6.930;2023-04-06T07:16:46;6.20;94.70
19945;DHT22;10134;50.952;6.930;2023-04-06T07:19:15;6.30;94.70
19945;DHT22;10134;50.952;6.930;2023-04-06T07:21:44;6.40;94.60
19945;DHT22;10134;50.952;6.930;2023-04-06T07:24:12;6.50;94.40
19945;DHT22;10134;50.952;6.930;2023-04-06T07:26:39;6.60;94.30
19945;DHT22;10134;50.952;6.930;2023-04-06T07:29:06;6.70;94.10
19945;DHT22;10134;50.952;6.930;2023-04-06T07:31:34;6.90;94.00
19945;DHT22;10134;50.952;6.930;2023-04-06T07:34:03;7.00;93.90
19945;DHT22;10134;50.952;6.930;2023-04-06T07:36:31;7.10;93.60
19945;DHT22;10134;50.952;6.930;2023-04-06T07:38:59;7.10;93.40
19945;DHT22;10134;50.952;6.930;2023-04-06T07:41:27;7.20;93.10
19945;DHT22;10134;50.952;6.930;2023-04-06T07:43:54;7.30;93.10
19945;DHT22;10134;50.952;6.930;2023-04-06T07:46:21;7.30;92.70
19945;DHT22;10134;50.952;6.930;2023-04-06T07:48:49;7.40;92.50
19945;DHT22;10134;50.952;6.930;2023-04-06T07:51:18;7.50;92.10
19945;DHT22;10134;50.952;6.930;2023-04-06T07:53:46;7.60;91.90
19945;DHT22;10134;50.952;6.930;2023-04-06T07:56:13;7.60;91.90
19945;DHT22;10134;50.952;6.930;2023-04-06T07:58:42;7.70;91.80
19945;DHT22;10134;50.952;6.930;2023-04-06T08:01:10;7.70;91.80
19945;DHT22;10134;50.952;6.930;2023-04-06T08:03:38;7.70;91.80
19945;DHT22;10134;50.952;6.930;2023-04-06T08:06:06;7.80;91.90
19945;DHT22;10134;50.952;6.930;2023-04-06T08:08:33;7.90;92.00
19945;DHT22;10134;50.952;6.930;2023-04-06T08:11:01;7.90;91.70
19945;DHT22;10134;50.952;6.930;2023-04-06T08:13:29;8.00;91.60
19945;DHT22;10134;50.952;6.930;2023-04-06T08:15:58;8.10;91.40
19945;DHT22;10134;50.952;6.930;2023-04-06T08:18:26;8.20;91.20
19945;DHT22;10134;50.952;6.930;2023-04-06T08:20:54;8.30;91.10
19945;DHT22;10134;50.952;6.930;2023-04-06T08:23:22;8.30;90.80
19945;DHT22;10134;50.952;6.930;2023-04-06T08:25:49;8.40;90.80
19945;DHT22;10134;50.952;6.930;2023-04-06T08:28:17;8.50;90.70
19945;DHT22;10134;50.952;6.930;2023-04-06T08:30:44;8.60;90.70
19945;DHT22;10134;50.952;6.930;2023-04-06T08:33:12;8.70;90.70
19945;DHT22;10134;50.952;6.930;2023-04-06T08:35:39;8.80;90.70
19945;DHT22;10134;50.952;6.930;2023-04-06T08:38:07;8.80;90.40
19945;DHT22;10134;50.952;6.930;2023-04-06T08:40:39;8.90;90.40
19945;DHT22;10134;50.952;6.930;2023-04-06T08:43:09;9.00;90.30
19945;DHT22;10134;50.952;6.930;2023-04-06T08:45:40;9.00;90.10
19945;DHT22;10134;50.952;6.930;2023-04-06T08:48:08;9.10;90.00
19945;DHT22;10134;50.952;6.930;2023-04-06T08:50:38;9.20;89.70
19945;DHT22;10134;50.952;6.930;2023-04-06T08:53:06;9.30;89.60
19945;DHT22;10134;50.952;6.930;2023-04-06T08:55:35;9.30;89.20
19945;DHT22;10134;50.952;6.930;2023-04-06T08:58:04;9.40;89.20
19945;DHT22;10134;50.952;6.930;2023-04-06T09:00:37;9.50;89.00
19945;DHT22;10134;50.952;6.930;2023-04-06T09:03:06;9.60;88.50
19945;DHT22;10134;50.952;6.930;2023-04-06T09:05:35;9.70;88.70
19945;DHT22;10134;50.952;6.930;2023-04-06T09:08:02;9.90;87.60
19945;DHT22;10134;50.952;6.930;2023-04-06T09:10:30;10.00;86.20
19945;DHT22;10134;50.952;6.930;2023-04-06T09:13:08;10.10;85.40
19945;DHT22;10134;50.952;6.930;2023-04-06T09:15:37;10.20;84.60
19945;DHT22;10134;50.952;6.930;2023-04-06T09:18:05;10.30;84.40
19945;DHT22;10134;50.952;6.930;2023-04-06T09:20:32;10.40;84.30
19945;DHT22;10134;50.952;6.930;2023-04-06T09:23:00;10.50;84.00
19945;DHT22;10134;50.952;6.930;2023-04-06T09:25:27;10.60;83.50
19945;DHT22;10134;50.952;6.930;2023-04-06T09:27:59;10.80;83.70
19945;DHT22;10134;50.952;6.930;2023-04-06T09:30:27;10.90;83.40
19945;DHT22;10134;50.952;6.930;2023-04-06T09:32:56;11.00;83.30
19945;DHT22;10134;50.952;6.930;2023-04-06T09:35:24;11.10;83.00
19945;DHT22;10134;50.952;6.930;2023-04-06T09:37:53;11.20;82.70
19945;DHT22;10134;50.952;6.930;2023-04-06T09:40:21;11.30;81.90
19945;DHT22;10134;50.952;6.930;2023-04-06T09:42:52;11.40;81.50
19945;DHT22;10134;50.952;6.930;2023-04-06T09:45:21;11.50;81.30
19945;DHT22;10134;50.952;6.930;2023-04-06T09:47:49;11.50;81.40
19945;DHT22;10134;50.952;6.930;2023-04-06T09:50:19;11.60;81.50
19945;DHT22;10134;50.952;6.930;2023-04-06T09:52:48;11.70;81.40
19945;DHT22;10134;50.952;6.930;2023-04-06T09:55:29;11.80;81.20
19945;DHT22;10134;50.952;6.930;2023-04-06T09:58:09;11.90;81.30
19945;DHT22;10134;50.952;6.930;2023-04-06T10:06:13;12.20;80.70
19945;DHT22;10134;50.952;6.930;2023-04-06T10:08:42;12.30;80.20
19945;DHT22;10134;50.952;6.930;2023-04-06T10:11:11;12.40;79.90
19945;DHT22;10134;50.952;6.930;2023-04-06T10:13:38;12.40;78.90
19945;DHT22;10134;50.952;6.930;2023-04-06T10:16:06;12.50;79.20
19945;DHT22;10134;50.952;6.930;2023-04-06T10:18:35;12.50;79.30
19945;DHT22;10134;50.952;6.930;2023-04-06T10:21:09;12.60;78.60
19945;DHT22;10134;50.952;6.930;2023-04-06T10:23:58;12.70;78.00
19945;DHT22;10134;50.952;6.930;2023-04-06T10:26:26;12.80;77.80
19945;DHT22;10134;50.952;6.930;2023-04-06T10:28:54;12.90;77.50
19945;DHT22;10134;50.952;6.930;2023-04-06T10:31:26;13.00;77.40
19945;DHT22;10134;50.952;6.930;2023-04-06T10:33:56;13.10;77.10
19945;DHT22;10134;50.952;6.930;2023-04-06T10:36:28;13.20;76.20
19945;DHT22;10134;50.952;6.930;2023-04-06T10:39:00;13.30;75.70
19945;DHT22;10134;50.952;6.930;2023-04-06T10:41:40;13.30;75.10
19945;DHT22;10134;50.952;6.930;2023-04-06T10:44:20;13.40;75.20
19945;DHT22;10134;50.952;6.930;2023-04-06T10:46:59;13.40;75.10
19945;DHT22;10134;50.952;6.930;2023-04-06T10:49:29;13.50;75.30
19945;DHT22;10134;50.952;6.930;2023-04-06T10:51:57;13.60;75.00
19945;DHT22;10134;50.952;6.930;2023-04-06T10:54:26;13.70;74.90
19945;DHT22;10134;50.952;6.930;2023-04-06T10:56:54;13.70;74.00
19945;DHT22;10134;50.952;6.930;2023-04-06T10:59:23;13.70;72.80
19945;DHT22;10134;50.952;6.930;2023-04-06T11:01:52;13.70;71.80
19945;DHT22;10134;50.952;6.930;2023-04-06T11:04:20;13.80;71.60
19945;DHT22;10134;50.952;6.930;2023-04-06T11:06:49;13.80;71.20
19945;DHT22;10134;50.952;6.930;2023-04-06T11:09:27;13.90;71.50
19945;DHT22;10134;50.952;6.930;2023-04-06T11:11:55;13.90;71.50
19945;DHT22;10134;50.952;6.930;2023-04-06T11:14:24;14.00;71.70
19945;DHT22;10134;50.952;6.930;2023-04-06T11:16:51;14.00;71.40
19945;DHT22;10134;50.952;6.930;2023-04-06T11:19:19;14.00;70.70
19945;DHT22;10134;50.952;6.930;2023-04-06T11:21:48;14.10;70.20
19945;DHT22;10134;50.952;6.930;2023-04-06T11:24:18;14.10;69.60
19945;DHT22;10134;50.952;6.930;2023-04-06T11:26:51;14.20;69.40
19945;DHT22;10134;50.952;6.930;2023-04-06T11:29:20;14.20;69.30
19945;DHT22;10134;50.952;6.930;2023-04-06T11:31:50;14.30;68.60
19945;DHT22;10134;50.952;6.930;2023-04-06T11:34:20;14.30;67.90
19945;DHT22;10134;50.952;6.930;2023-04-06T11:36:49;14.30;67.90
19945;DHT22;10134;50.952;6.930;2023-04-06T11:39:22;14.40;68.20
19945;DHT22;10134;50.952;6.930;2023-04-06T11:41:51;14.40;67.50
19945;DHT22;10134;50.952;6.930;2023-04-06T11:44:39;14.50;67.00
19945;DHT22;10134;50.952;6.930;2023-04-06T11:47:09;14.50;67.10
19945;DHT22;10134;50.952;6.930;2023-04-06T11:49:41;14.50;66.00
19945;DHT22;10134;50.952;6.930;2023-04-06T11:52:21;14.60;66.20
19945;DHT22;10134;50.952;6.930;2023-04-06T11:54:50;14.60;66.30
19945;DHT22;10134;50.952;6.930;2023-04-06T11:57:18;14.70;66.10
19945;DHT22;10134;50.952;6.930;2023-04-06T11:59:46;14.70;65.90
19945;DHT22;10134;50.952;6.930;2023-04-06T12:02:14;14.70;65.70
19945;DHT22;10134;50.952;6.930;2023-04-06T12:04:42;14.70;65.60
19945;DHT22;10134;50.952;6.930;2023-04-06T12:07:09;14.80;65.60
19945;DHT22;10134;50.952;6.930;2023-04-06T12:09:37;14.80;65.40
19945;DHT22;10134;50.952;6.930;2023-04-06T12:12:04;14.90;65.50
19945;DHT22;10134;50.952;6.930;2023-04-06T12:14:31;14.90;65.60
19945;DHT22;10134;50.952;6.930;2023-04-06T12:16:59;15.10;65.50
19945;DHT22;10134;50.952;6.930;2023-04-06T12:19:26;15.10;64.90
19945;DHT22;10134;50.952;6.930;2023-04-06T12:21:55;15.20;64.80
19945;DHT22;10134;50.952;6.930;2023-04-06T12:24:24;15.20;64.80
19945;DHT22;10134;50.952;6.930;2023-04-06T12:26:53;15.30;64.40
19945;DHT22;10134;50.952;6.930;2023-04-06T12:29:32;15.20;63.70
19945;DHT22;10134;50.952;6.930;2023-04-06T12:32:00;15.30;64.00
19945;DHT22;10134;50.952;6.930;2023-04-06T12:34:29;15.20;63.80
19945;DHT22;10134;50.952;6.930;2023-04-06T12:36:56;15.20;63.80
19945;DHT22;10134;50.952;6.930;2023-04-06T12:39:24;15.30;64.20
19945;DHT22;10134;50.952;6.930;2023-04-06T12:41:52;15.30;64.40
19945;DHT22;10134;50.952;6.930;2023-04-06T12:44:20;15.30;64.70
19945;DHT22;10134;50.952;6.930;2023-04-06T12:46:47;15.40;64.80
19945;DHT22;10134;50.952;6.930;2023-04-06T12:49:14;15.30;64.60
19945;DHT22;10134;50.952;6.930;2023-04-06T12:51:44;15.20;64.90
19945;DHT22;10134;50.952;6.930;2023-04-06T12:54:11;15.30;65.40
19945;DHT22;10134;50.952;6.930;2023-04-06T12:56:39;15.40;65.80
19945;DHT22;10134;50.952;6.930;2023-04-06T12:59:06;15.40;65.60
19945;DHT22;10134;50.952;6.930;2023-04-06T13:01:34;15.40;65.60
19945;DHT22;10134;50.952;6.930;2023-04-06T13:04:02;15.40;65.20
19945;DHT22;10134;50.952;6.930;2023-04-06T13:06:29;15.30;65.00
19945;DHT22;10134;50.952;6.930;2023-04-06T13:08:57;15.30;65.20
19945;DHT22;10134;50.952;6.930;2023-04-06T13:11:25;15.30;65.30
19945;DHT22;10134;50.952;6.930;2023-04-06T13:13:55;15.30;65.10
19945;DHT22;10134;50.952;6.930;2023-04-06T13:16:22;15.30;65.60
19945;DHT22;10134;50.952;6.930;2023-04-06T13:18:50;15.30;65.80
19945;DHT22;10134;50.952;6.930;2023-04-06T13:21:17;15.30;66.10
19945;DHT22;10134;50.952;6.930;2023-04-06T13:23:45;15.20;66.60
19945;DHT22;10134;50.952;6.930;2023-04-06T13:26:12;15.20;67.60
19945;DHT22;10134;50.952;6.930;2023-04-06T13:28:43;15.10;67.50
19945;DHT22;10134;50.952;6.930;2023-04-06T13:31:11;15.10;68.20
19945;DHT22;10134;50.952;6.930;2023-04-06T13:33:38;15.00;68.20
19945;DHT22;10134;50.952;6.930;2023-04-06T13:36:07;15.00;68.50
19945;DHT22;10134;50.952;6.930;2023-04-06T13:38:35;14.90;68.30
19945;DHT22;10134;50.952;6.930;2023-04-06T13:41:05;14.80;67.90
19945;DHT22;10134;50.952;6.930;2023-04-06T13:43:33;14.70;67.80
19945;DHT22;10134;50.952;6.930;2023-04-06T13:46:00;14.70;68.40
19945;DHT22;10134;50.952;6.930;2023-04-06T13:48:28;14.50;68.70
19945;DHT22;10134;50.952;6.930;2023-04-06T13:50:56;14.40;69.30
19945;DHT22;10134;50.952;6.930;2023-04-06T13:53:23;14.20;69.60
19945;DHT22;10134;50.952;6.930;2023-04-06T13:55:55;14.20;70.00
19945;DHT22;10134;50.952;6.930;2023-04-06T13:58:23;14.00;70.40
19945;DHT22;10134;50.952;6.930;2023-04-06T14:00:50;13.90;70.70
19945;DHT22;10134;50.952;6.930;2023-04-06T14:03:24;13.90;71.20
19945;DHT22;10134;50.952;6.930;2023-04-06T14:05:52;13.80;71.50
19945;DHT22;10134;50.952;6.930;2023-04-06T14:08:31;13.70;71.70
19945;DHT22;10134;50.952;6.930;2023-04-06T14:11:02;13.60;72.20
19945;DHT22;10134;50.952;6.930;2023-04-06T14:13:30;13.60;72.90
19945;DHT22;10134;50.952;6.930;2023-04-06T14:15:57;13.50;73.70
19945;DHT22;10134;50.952;6.930;2023-04-06T14:18:24;13.50;74.50
19945;DHT22;10134;50.952;6.930;2023-04-06T14:20:55;13.50;75.50
19945;DHT22;10134;50.952;6.930;2023-04-06T14:23:23;13.50;75.90
19945;DHT22;10134;50.952;6.930;2023-04-06T14:26:07;13.50;77.20
19945;DHT22;10134;50.952;6.930;2023-04-06T14:28:35;13.50;77.30
19945;DHT22;10134;50.952;6.930;2023-04-06T14:31:10;13.50;77.80
19945;DHT22;10134;50.952;6.930;2023-04-06T14:33:42;13.50;78.40
19945;DHT22;10134;50.952;6.930;2023-04-06T14:36:10;13.50;79.80
19945;DHT22;10134;50.952;6.930;2023-04-06T14:38:38;13.40;79.70
19945;DHT22;10134;50.952;6.930;2023-04-06T14:41:08;13.40;80.50
19945;DHT22;10134;50.952;6.930;2023-04-06T14:43:36;13.40;80.50
19945;DHT22;10134;50.952;6.930;2023-04-06T14:46:03;13.40;81.00
19945;DHT22;10134;50.952;6.930;2023-04-06T14:48:31;13.40;81.20
19945;DHT22;10134;50.952;6.930;2023-04-06T14:50:58;13.40;82.60
19945;DHT22;10134;50.952;6.930;2023-04-06T14:53:26;13.30;82.90
19945;DHT22;10134;50.952;6.930;2023-04-06T14:55:55;13.20;83.90
19945;DHT22;10134;50.952;6.930;2023-04-06T14:58:23;13.20;85.00
19945;DHT22;10134;50.952;6.930;2023-04-06T15:00:58;13.20;85.40
19945;DHT22;10134;50.952;6.930;2023-04-06T15:03:27;13.10;86.50
19945;DHT22;10134;50.952;6.930;2023-04-06T15:05:55;13.10;87.70
19945;DHT22;10134;50.952;6.930;2023-04-06T15:08:23;13.00;88.70
19945;DHT22;10134;50.952;6.930;2023-04-06T15:10:51;13.00;89.50
19945;DHT22;10134;50.952;6.930;2023-04-06T15:13:19;12.90;90.30
19945;DHT22;10134;50.952;6.930;2023-04-06T15:15:46;12.80;90.80
19945;DHT22;10134;50.952;6.930;2023-04-06T15:18:13;12.80;91.30
19945;DHT22;10134;50.952;6.930;2023-04-06T15:20:41;12.60;91.80
19945;DHT22;10134;50.952;6.930;2023-04-06T15:23:08;12.60;91.80
19945;DHT22;10134;50.952;6.930;2023-04-06T15:25:36;12.50;92.60
19945;DHT22;10134;50.952;6.930;2023-04-06T15:28:08;12.40;93.60
19945;DHT22;10134;50.952;6.930;2023-04-06T15:30:35;12.40;94.10
19945;DHT22;10134;50.952;6.930;2023-04-06T15:33:04;12.30;94.70
19945;DHT22;10134;50.952;6.930;2023-04-06T15:35:33;12.30;95.60
19945;DHT22;10134;50.952;6.930;2023-04-06T15:38:02;12.20;96.30
19945;DHT22;10134;50.952;6.930;2023-04-06T15:40:29;12.20;96.90
19945;DHT22;10134;50.952;6.930;2023-04-06T15:42:57;12.20;97.60
19945;DHT22;10134;50.952;6.930;2023-04-06T15:45:24;12.10;98.60
19945;DHT22;10134;50.952;6.930;2023-04-06T15:47:51;12.10;99.40
19945;DHT22;10134;50.952;6.930;2023-04-06T15:50:19;12.00;99.90
19945;DHT22;10134;50.952;6.930;2023-04-06T15:52:46;12.00;99.90
19945;DHT22;10134;50.952;6.930;2023-04-06T15:55:13;11.90;99.90
19945;DHT22;10134;50.952;6.930;2023-04-06T15:57:41;11.80;99.90
19945;DHT22;10134;50.952;6.930;2023-04-06T16:00:08;11.70;99.90
19945;DHT22;10134;50.952;6.930;2023-04-06T16:02:36;11.70;99.90